15°C Temp
7°C Dewpoint
% Humidity
Temperature
5 KM/H
3 MPH
3 KTS
190°
Due South

Wind Speed
Despejado
Pressure 1024.92 (hPa) - 30.27 (in)
Visibility 6.2 (mi) - 10.0 (km)

Current Conditions
LEAL
Location 70(km)
Metar :LEAL 181630Z 19003KT 150V240 CAVOK 15/07 Q1025 NOSIG
Sat 18th January 17:30 pm

Airport
  Metar Aviation API Data Provided by https://www.checkwx.com/ PHP scripts by weather34.com ©2020